Time;durP1;ratioP1;P1;durP2;ratioP2;P2;SDS_P1;SDS_P2;PMS_P1;PMS_P2;Temp;Humidity;BMP_temperature;BMP_pressure;BME280_temperature;BME280_humidity;BME280_pressure;Samples;Min_cycle;Max_cycle;Signal;HPM_P1;HPM_P2
2022/02/14 00:02:00;;;;;;;25.05;23.45;;;5.30;67.50;;;;;;5032320;28;20220;-72
2022/02/14 00:04:29;;;;;;;25.20;23.50;;;5.30;67.10;;;;;;5032407;28;20210;-72
2022/02/14 00:06:56;;;;;;;25.50;23.85;;;5.30;67.10;;;;;;5032277;28;20204;-72
2022/02/14 00:09:22;;;;;;;25.30;23.80;;;5.40;65.70;;;;;;5033494;28;20202;-72
2022/02/14 00:11:50;;;;;;;25.58;23.83;;;5.40;66.30;;;;;;5036148;28;20223;-73
2022/02/14 00:14:17;;;;;;;25.13;23.42;;;5.40;67.00;;;;;;5036159;28;20229;-72
2022/02/14 00:16:45;;;;;;;25.40;23.80;;;5.50;66.80;;;;;;5036214;28;20232;-72
2022/02/14 00:19:12;;;;;;;25.45;23.85;;;5.50;68.50;;;;;;5035882;28;20610;-72
2022/02/14 00:21:40;;;;;;;25.00;23.50;;;5.50;67.00;;;;;;5035861;28;20227;-72
2022/02/14 00:24:09;;;;;;;24.63;23.05;;;5.60;65.70;;;;;;5036250;28;20704;-72
2022/02/14 00:26:37;;;;;;;24.30;22.90;;;5.70;65.60;;;;;;5035908;28;20197;-72
2022/02/14 00:29:04;;;;;;;24.65;23.08;;;5.70;65.10;;;;;;5036123;28;20204;-72
2022/02/14 00:31:31;;;;;;;25.13;23.20;;;5.80;66.10;;;;;;5035797;28;20229;-72
2022/02/14 00:33:58;;;;;;;24.45;23.15;;;5.80;65.70;;;;;;5035707;28;20227;-72
2022/02/14 00:36:26;;;;;;;25.40;23.77;;;5.90;66.80;;;;;;5035808;28;20250;-72
2022/02/14 00:38:54;;;;;;;25.10;23.50;;;5.90;64.70;;;;;;5035751;28;20244;-72
2022/02/14 00:41:21;;;;;;;24.50;22.92;;;6.00;64.30;;;;;;5035762;28;20223;-72
2022/02/14 00:43:48;;;;;;;24.30;22.70;;;6.00;63.80;;;;;;5035685;28;20287;-72
2022/02/14 00:46:15;;;;;;;25.17;23.38;;;6.00;64.20;;;;;;5035513;28;20563;-72
2022/02/14 00:48:41;;;;;;;24.83;23.40;;;6.00;64.50;;;;;;5035524;28;20204;-72
2022/02/14 00:51:08;;;;;;;23.33;21.95;;;6.00;65.60;;;;;;5035331;28;20228;-72
2022/02/14 00:53:35;;;;;;;24.23;22.73;;;6.10;64.30;;;;;;5035640;28;20226;-72
2022/02/14 00:56:04;;;;;;;24.13;22.80;;;6.20;65.10;;;;;;5035508;28;20205;-72
2022/02/14 00:58:31;;;;;;;24.08;22.67;;;6.20;63.50;;;;;;5035595;28;20200;-72
2022/02/14 01:00:58;;;;;;;24.98;23.17;;;6.20;62.90;;;;;;5035010;28;20245;-72
2022/02/14 01:03:25;;;;;;;24.08;22.67;;;6.20;63.00;;;;;;5035428;28;20199;-72
2022/02/14 01:05:52;;;;;;;24.05;22.55;;;6.20;62.80;;;;;;5035611;28;20231;-72
2022/02/14 01:08:18;;;;;;;25.05;23.65;;;6.30;62.90;;;;;;5035420;28;20283;-72
2022/02/14 01:10:45;;;;;;;25.13;23.73;;;6.20;64.90;;;;;;5035086;28;20248;-72
2022/02/14 01:13:14;;;;;;;24.83;23.33;;;6.30;63.50;;;;;;5035091;28;20789;-72
2022/02/14 01:15:41;;;;;;;24.35;22.95;;;6.30;63.10;;;;;;5035176;28;20210;-72
2022/02/14 01:18:07;;;;;;;23.92;22.42;;;6.30;62.20;;;;;;5035086;28;20562;-72
2022/02/14 01:20:34;;;;;;;24.38;22.98;;;6.30;62.40;;;;;;5033416;28;20678;-72
2022/02/14 01:23:01;;;;;;;23.52;22.15;;;6.30;62.10;;;;;;5034842;28;20231;-72
2022/02/14 01:25:28;;;;;;;23.67;22.30;;;6.20;61.90;;;;;;5034952;28;20743;-72
2022/02/14 01:27:55;;;;;;;23.55;22.15;;;6.20;62.90;;;;;;5034681;28;20631;-73
2022/02/14 01:30:23;;;;;;;23.73;22.33;;;6.30;62.50;;;;;;5034570;28;20303;-72
2022/02/14 01:32:50;;;;;;;25.27;23.60;;;6.30;62.70;;;;;;5034806;28;20219;-72
2022/02/14 01:35:17;;;;;;;24.13;22.70;;;6.30;62.10;;;;;;5034696;28;20287;-72
2022/02/14 01:37:44;;;;;;;23.83;22.42;;;6.40;61.20;;;;;;5034673;28;20200;-72
2022/02/14 01:40:13;;;;;;;24.27;22.88;;;6.40;61.20;;;;;;5034311;28;20299;-72
2022/02/14 01:42:41;;;;;;;24.63;23.20;;;6.50;61.10;;;;;;5034444;28;20220;-72
2022/02/14 01:45:09;;;;;;;24.42;22.92;;;6.40;60.80;;;;;;5034636;28;20195;-72
2022/02/14 01:47:38;;;;;;;23.90;22.60;;;6.40;60.80;;;;;;5034516;28;20203;-72
2022/02/14 01:50:06;;;;;;;24.00;22.60;;;6.40;61.80;;;;;;5034264;28;20240;-72
2022/02/14 01:52:35;;;;;;;24.02;22.63;;;6.40;61.90;;;;;;5034294;28;20826;-72
2022/02/14 01:55:04;;;;;;;23.55;22.27;;;6.40;65.80;;;;;;5034290;28;20209;-72
2022/02/14 01:57:31;;;;;;;23.85;22.45;;;6.50;60.60;;;;;;5034329;28;20210;-72
2022/02/14 01:59:58;;;;;;;23.30;21.90;;;6.50;59.90;;;;;;5034036;28;20282;-72
2022/02/14 02:02:26;;;;;;;22.30;21.10;;;6.50;60.20;;;;;;5034304;28;20199;-72
2022/02/14 02:04:55;;;;;;;25.20;23.67;;;6.60;59.80;;;;;;5034244;28;20203;-72
2022/02/14 02:07:22;;;;;;;23.10;21.90;;;6.60;59.70;;;;;;5034097;28;20301;-72
2022/02/14 02:09:49;;;;;;;23.52;22.23;;;6.60;59.60;;;;;;5033988;28;20201;-72
2022/02/14 02:12:24;;;;;;;22.98;21.40;;;6.60;59.40;;;;;;5033938;28;20264;-72
2022/02/14 02:14:52;;;;;;;23.20;21.77;;;6.60;58.90;;;;;;5034280;28;20200;-73
2022/02/14 02:17:19;;;;;;;23.45;21.90;;;6.60;58.40;;;;;;5033962;28;20200;-72
2022/02/14 02:19:46;;;;;;;22.33;21.13;;;6.70;58.30;;;;;;5033714;28;20282;-72
2022/02/14 02:22:14;;;;;;;24.00;22.45;;;6.70;58.00;;;;;;5033503;28;20220;-72
2022/02/14 02:24:47;;;;;;;23.23;21.83;;;6.70;57.80;;;;;;5033891;28;20285;-72
2022/02/14 02:27:14;;;;;;;22.85;21.45;;;6.70;58.10;;;;;;5033621;28;20630;-72
2022/02/14 02:29:42;;;;;;;23.77;22.35;;;6.70;57.80;;;;;;5033575;28;20200;-72
2022/02/14 02:32:10;;;;;;;23.23;21.92;;;6.70;57.20;;;;;;5033408;28;20316;-72
2022/02/14 02:34:39;;;;;;;24.00;22.60;;;6.90;56.90;;;;;;5033520;28;20203;-72
2022/02/14 02:37:07;;;;;;;23.92;22.48;;;6.80;57.10;;;;;;5033595;28;20287;-72
2022/02/14 02:39:34;;;;;;;23.77;22.38;;;6.80;57.00;;;;;;5033302;28;20216;-72
2022/02/14 02:42:04;;;;;;;23.20;21.80;;;6.80;57.10;;;;;;5033385;28;20275;-72
2022/02/14 02:44:32;;;;;;;22.98;21.35;;;6.80;58.00;;;;;;5033465;28;20292;-72
2022/02/14 02:46:59;;;;;;;23.05;21.75;;;6.80;57.20;;;;;;5033457;28;20205;-72
2022/02/14 02:49:27;;;;;;;23.92;22.42;;;6.80;58.20;;;;;;5033242;28;20204;-72
2022/02/14 02:51:54;;;;;;;24.20;22.77;;;6.80;57.60;;;;;;5033181;28;20225;-72
2022/02/14 02:54:23;;;;;;;23.85;22.25;;;6.90;56.70;;;;;;5033397;28;20586;-72
2022/02/14 02:56:52;;;;;;;23.23;21.92;;;6.80;56.30;;;;;;5033242;28;20292;-72
2022/02/14 02:59:21;;;;;;;23.40;22.10;;;6.80;56.20;;;;;;5032921;28;20210;-73
2022/02/14 03:01:48;;;;;;;22.40;21.20;;;6.80;55.80;;;;;;5033040;28;20278;-72
2022/02/14 03:04:17;;;;;;;23.20;21.85;;;6.80;55.80;;;;;;5033040;28;20547;-72
2022/02/14 03:06:44;;;;;;;23.25;21.95;;;6.80;55.80;;;;;;5032996;28;20287;-72
2022/02/14 03:09:14;;;;;;;23.48;21.88;;;6.80;56.00;;;;;;5032820;28;20206;-72
2022/02/14 03:11:42;;;;;;;23.10;21.70;;;6.70;56.10;;;;;;5033044;28;20649;-72
2022/02/14 03:14:09;;;;;;;23.63;22.23;;;6.70;55.70;;;;;;5032887;28;20206;-72
2022/02/14 03:16:38;;;;;;;22.45;21.20;;;6.70;55.20;;;;;;5032824;28;20209;-72
2022/02/14 03:19:05;;;;;;;22.45;21.25;;;6.70;55.20;;;;;;5032682;28;20239;-72
2022/02/14 03:21:32;;;;;;;22.92;21.73;;;6.70;55.40;;;;;;5032639;28;20538;-72
2022/02/14 03:23:59;;;;;;;24.52;23.13;;;6.60;55.70;;;;;;5032784;28;20238;-72
2022/02/14 03:26:26;;;;;;;24.13;22.73;;;6.60;56.10;;;;;;5032665;28;20670;-72
2022/02/14 03:28:55;;;;;;;23.15;21.75;;;6.50;57.80;;;;;;5032522;28;20235;-72
2022/02/14 03:31:22;;;;;;;22.40;21.10;;;6.60;56.30;;;;;;5032514;28;20582;-72
2022/02/14 03:33:51;;;;;;;23.58;22.27;;;6.50;56.30;;;;;;5032601;28;20227;-72
2022/02/14 03:36:20;;;;;;;24.52;23.02;;;6.50;55.40;;;;;;5032628;28;20243;-72
2022/02/14 03:38:47;;;;;;;23.83;22.42;;;6.40;55.50;;;;;;5032383;28;20219;-72
2022/02/14 03:41:15;;;;;;;23.58;22.27;;;6.50;58.90;;;;;;5032520;28;20241;-72
2022/02/14 03:43:42;;;;;;;24.38;22.98;;;6.50;55.90;;;;;;5031824;28;20200;-72
2022/02/14 03:46:09;;;;;;;23.35;21.95;;;6.50;56.20;;;;;;5032660;28;20203;-72
2022/02/14 03:48:36;;;;;;;23.98;22.58;;;6.40;56.30;;;;;;5032475;28;20204;-72
2022/02/14 03:51:04;;;;;;;22.98;21.67;;;6.40;55.90;;;;;;5032168;28;20231;-72
2022/02/14 03:53:31;;;;;;;23.85;22.45;;;6.40;55.20;;;;;;5032456;28;20590;-72
2022/02/14 03:55:58;;;;;;;23.85;22.55;;;6.40;55.10;;;;;;5032594;28;20692;-72
2022/02/14 03:58:25;;;;;;;24.30;22.90;;;6.30;55.30;;;;;;5032404;28;20204;-72
2022/02/14 04:00:52;;;;;;;23.70;22.10;;;6.30;55.70;;;;;;5032133;28;20335;-72
2022/02/14 04:03:19;;;;;;;23.30;21.90;;;6.20;55.70;;;;;;5032572;28;20191;-72
2022/02/14 04:05:46;;;;;;;23.80;22.40;;;6.20;56.30;;;;;;5032316;28;20735;-72
2022/02/14 04:08:14;;;;;;;23.63;22.23;;;6.20;56.20;;;;;;5032266;28;20569;-72
2022/02/14 04:10:42;;;;;;;24.90;23.40;;;6.10;55.90;;;;;;5032106;28;20220;-72
2022/02/14 04:13:09;;;;;;;23.35;21.95;;;6.10;55.60;;;;;;5032310;28;20224;-72
2022/02/14 04:15:36;;;;;;;24.08;22.67;;;6.10;55.60;;;;;;5032371;28;20195;-72
2022/02/14 04:18:03;;;;;;;25.15;23.45;;;6.00;55.90;;;;;;5032150;28;20241;-72
2022/02/14 04:20:30;;;;;;;24.65;22.95;;;6.00;55.90;;;;;;5031814;28;20220;-72
2022/02/14 04:22:57;;;;;;;23.23;21.88;;;6.00;55.50;;;;;;5031764;28;20205;-72
2022/02/14 04:25:25;;;;;;;24.02;22.73;;;6.00;55.70;;;;;;5032088;28;20736;-72
2022/02/14 04:27:53;;;;;;;23.90;22.55;;;6.00;55.20;;;;;;5031940;28;20291;-72
2022/02/14 04:30:20;;;;;;;25.88;24.55;;;5.90;56.20;;;;;;5031827;28;20227;-72
2022/02/14 04:32:46;;;;;;;24.73;23.13;;;5.90;56.10;;;;;;5032153;28;20725;-72
2022/02/14 04:35:13;;;;;;;24.73;23.02;;;5.80;56.50;;;;;;5032201;28;20200;-72
2022/02/14 04:37:40;;;;;;;25.58;23.98;;;5.80;56.90;;;;;;5032009;28;20225;-72
2022/02/14 04:40:08;;;;;;;24.48;22.98;;;5.80;57.50;;;;;;5031711;28;20216;-72
2022/02/14 04:42:37;;;;;;;24.13;22.73;;;5.80;58.40;;;;;;5032143;28;20235;-72
2022/02/14 04:45:04;;;;;;;23.95;22.45;;;5.80;58.80;;;;;;5032125;28;20204;-72
2022/02/14 04:47:31;;;;;;;23.42;21.92;;;5.70;58.50;;;;;;5032009;28;20624;-72
2022/02/14 04:49:58;;;;;;;27.17;25.25;;;5.70;58.30;;;;;;5031919;28;20626;-72
2022/02/14 04:52:26;;;;;;;23.83;22.33;;;5.60;58.40;;;;;;5031920;28;20229;-72
2022/02/14 04:54:53;;;;;;;25.20;23.60;;;5.50;59.90;;;;;;5032427;28;20211;-72
2022/02/14 04:57:19;;;;;;;23.90;22.35;;;5.50;61.90;;;;;;5035457;28;20819;-73
2022/02/14 04:59:48;;;;;;;24.98;23.23;;;5.50;62.70;;;;;;5035327;28;20233;-72
2022/02/14 05:02:15;;;;;;;25.30;23.83;;;5.40;64.80;;;;;;5035476;28;20256;-72
2022/02/14 05:04:41;;;;;;;24.67;23.15;;;5.40;65.10;;;;;;5035304;28;20209;-72
2022/02/14 05:07:08;;;;;;;24.30;22.80;;;5.40;63.40;;;;;;5035241;28;20204;-72
2022/02/14 05:09:35;;;;;;;26.35;24.42;;;5.40;60.70;;;;;;5034942;28;20199;-72
2022/02/14 05:12:03;;;;;;;22.33;21.02;;;5.40;59.70;;;;;;5035135;28;20216;-72
2022/02/14 05:14:30;;;;;;;22.52;21.27;;;5.40;58.60;;;;;;5035095;28;20628;-72
2022/02/14 05:16:58;;;;;;;25.40;24.00;;;5.40;58.60;;;;;;5035155;28;20242;-72
2022/02/14 05:19:25;;;;;;;23.33;21.83;;;5.40;58.90;;;;;;5034852;28;20204;-72
2022/02/14 05:21:52;;;;;;;24.20;23.00;;;5.40;60.50;;;;;;5034704;28;20262;-72
2022/02/14 05:24:19;;;;;;;23.42;22.02;;;5.30;60.60;;;;;;5035026;28;20196;-72
2022/02/14 05:26:46;;;;;;;23.00;21.70;;;5.30;59.70;;;;;;5034868;28;20195;-72
2022/02/14 05:29:13;;;;;;;24.10;22.50;;;5.30;59.30;;;;;;5034950;28;20208;-72
2022/02/14 05:31:40;;;;;;;24.52;22.83;;;5.20;58.60;;;;;;5034707;28;20395;-72
2022/02/14 05:34:08;;;;;;;23.40;21.90;;;5.20;58.70;;;;;;5034776;28;20315;-72
2022/02/14 05:36:35;;;;;;;23.20;21.80;;;5.20;58.30;;;;;;5034795;28;20201;-72
2022/02/14 05:39:02;;;;;;;25.75;24.23;;;5.20;58.80;;;;;;5034722;28;20216;-72
2022/02/14 05:41:29;;;;;;;24.27;22.80;;;5.20;59.40;;;;;;5034587;28;20585;-72
2022/02/14 05:43:56;;;;;;;25.83;24.20;;;5.10;60.70;;;;;;5034672;28;20195;-72
2022/02/14 05:46:23;;;;;;;24.83;23.38;;;5.10;58.70;;;;;;5034411;28;20570;-72
2022/02/14 05:48:51;;;;;;;26.10;24.70;;;5.10;59.00;;;;;;5034516;28;20574;-72
2022/02/14 05:51:19;;;;;;;24.92;23.42;;;5.10;59.10;;;;;;5034270;28;20740;-72
2022/02/14 05:53:46;;;;;;;23.85;22.45;;;5.00;59.80;;;;;;5034486;28;20310;-72
2022/02/14 05:56:15;;;;;;;24.42;22.25;;;5.00;59.60;;;;;;5034297;28;20208;-72
2022/02/14 05:58:42;;;;;;;22.60;21.27;;;5.00;59.70;;;;;;5034336;28;20202;-72
2022/02/14 06:01:10;;;;;;;25.50;24.00;;;5.00;61.70;;;;;;5034013;28;20570;-72
2022/02/14 06:03:37;;;;;;;25.48;23.92;;;5.00;60.90;;;;;;5034250;28;20713;-72
2022/02/14 06:06:04;;;;;;;24.50;22.90;;;5.00;59.30;;;;;;5034009;28;20637;-72
2022/02/14 06:08:33;;;;;;;23.08;21.88;;;5.10;59.10;;;;;;5033647;28;20199;-72
2022/02/14 06:11:01;;;;;;;23.25;21.95;;;5.10;59.20;;;;;;5033898;28;20311;-72
2022/02/14 06:13:28;;;;;;;24.52;23.00;;;5.00;59.20;;;;;;5034019;28;20231;-72
2022/02/14 06:15:55;;;;;;;23.92;22.42;;;5.00;59.60;;;;;;5033999;28;20208;-72
2022/02/14 06:18:22;;;;;;;26.02;23.60;;;5.00;67.40;;;;;;5033918;28;20203;-72
2022/02/14 06:20:49;;;;;;;25.20;23.80;;;5.00;62.30;;;;;;5033814;28;20256;-72
2022/02/14 06:23:16;;;;;;;23.77;22.33;;;5.10;63.90;;;;;;5033719;28;20200;-72
2022/02/14 06:25:44;;;;;;;26.48;24.77;;;5.10;61.50;;;;;;5033783;28;20253;-72
2022/02/14 06:28:11;;;;;;;23.08;21.67;;;5.20;59.90;;;;;;5033527;28;20629;-72
2022/02/14 06:30:38;;;;;;;24.50;22.90;;;5.20;59.40;;;;;;5033450;28;20219;-72
2022/02/14 06:33:05;;;;;;;23.83;22.10;;;5.30;59.20;;;;;;5033734;28;20263;-72
2022/02/14 06:35:32;;;;;;;26.27;24.63;;;5.30;59.00;;;;;;5033597;28;20199;-72
2022/02/14 06:37:59;;;;;;;23.63;22.02;;;5.30;58.70;;;;;;5033606;28;20203;-72
2022/02/14 06:40:26;;;;;;;24.83;22.83;;;5.30;59.10;;;;;;5033157;28;20318;-72
2022/02/14 06:42:54;;;;;;;25.23;23.38;;;5.30;59.50;;;;;;5033451;28;20203;-72
2022/02/14 06:45:21;;;;;;;24.63;23.02;;;5.30;58.70;;;;;;5033479;28;20198;-72
2022/02/14 06:47:48;;;;;;;26.48;25.00;;;5.30;59.00;;;;;;5033318;28;20230;-72
2022/02/14 06:50:17;;;;;;;24.40;22.80;;;5.30;59.00;;;;;;5033038;28;20207;-72
2022/02/14 06:52:45;;;;;;;24.92;23.23;;;5.40;59.10;;;;;;5033172;28;20195;-72
2022/02/14 06:55:13;;;;;;;25.30;23.67;;;5.50;59.80;;;;;;5033283;28;20209;-72
2022/02/14 06:57:40;;;;;;;24.17;22.33;;;5.30;60.20;;;;;;5033322;28;20247;-72
2022/02/14 07:00:12;;;;;;;24.90;23.30;;;5.30;60.70;;;;;;5033014;28;20202;-72
2022/02/14 07:02:39;;;;;;;25.60;23.63;;;5.30;62.60;;;;;;5033338;28;20241;-73
2022/02/14 07:05:07;;;;;;;25.38;23.77;;;5.30;61.60;;;;;;5033195;28;20558;-72
2022/02/14 07:07:34;;;;;;;25.05;23.13;;;5.40;60.40;;;;;;5033050;28;20609;-72
2022/02/14 07:10:02;;;;;;;23.92;22.60;;;5.40;59.80;;;;;;5032582;28;20203;-72
2022/02/14 07:12:29;;;;;;;24.98;23.48;;;5.40;59.60;;;;;;5033087;28;20204;-72
2022/02/14 07:14:56;;;;;;;26.95;25.17;;;5.50;60.30;;;;;;5032838;28;20223;-72
2022/02/14 07:17:24;;;;;;;23.80;22.60;;;5.50;59.50;;;;;;5032949;28;20239;-72
2022/02/14 07:19:51;;;;;;;25.45;23.75;;;5.50;60.90;;;;;;5032655;28;20227;-72
2022/02/14 07:22:18;;;;;;;25.52;23.80;;;5.50;60.30;;;;;;5032537;28;20314;-72
2022/02/14 07:24:45;;;;;;;24.95;23.45;;;5.60;58.90;;;;;;5032697;28;20191;-72
2022/02/14 07:27:12;;;;;;;25.17;23.15;;;5.60;58.00;;;;;;5032571;28;20195;-72
2022/02/14 07:29:41;;;;;;;23.67;22.17;;;5.70;59.50;;;;;;5032627;28;20204;-72
2022/02/14 07:32:09;;;;;;;23.98;22.25;;;5.80;59.70;;;;;;5032822;28;20229;-72
2022/02/14 07:34:38;;;;;;;26.60;24.90;;;5.80;61.80;;;;;;5032546;28;20307;-73
2022/02/14 07:37:05;;;;;;;25.85;23.80;;;5.80;61.60;;;;;;5032678;28;20284;-72
2022/02/14 07:39:33;;;;;;;26.88;24.85;;;5.80;65.00;;;;;;5032403;28;20212;-73
2022/02/14 07:42:01;;;;;;;26.02;23.88;;;5.90;64.10;;;;;;5032697;28;20311;-73
2022/02/14 07:44:29;;;;;;;24.80;22.90;;;6.00;62.20;;;;;;5032581;28;20280;-72
2022/02/14 07:46:55;;;;;;;25.77;23.70;;;6.10;63.20;;;;;;5032511;28;20255;-72
2022/02/14 07:49:24;;;;;;;26.33;24.50;;;6.10;63.10;;;;;;5032468;28;20204;-72
2022/02/14 07:51:52;;;;;;;25.85;23.85;;;6.20;61.40;;;;;;5032490;28;20263;-72
2022/02/14 07:54:19;;;;;;;24.65;23.20;;;6.20;60.80;;;;;;5032519;28;20301;-72
2022/02/14 07:56:46;;;;;;;26.05;24.05;;;6.30;60.00;;;;;;5032362;28;20206;-73
2022/02/14 07:59:13;;;;;;;29.25;27.55;;;6.30;58.50;;;;;;5032199;28;20768;-72
2022/02/14 08:01:40;;;;;;;31.45;29.65;;;6.40;58.60;;;;;;5032351;28;20705;-72
2022/02/14 08:04:07;;;;;;;29.80;28.00;;;6.50;58.10;;;;;;5032302;28;20700;-72
2022/02/14 08:06:35;;;;;;;28.77;26.88;;;6.60;58.30;;;;;;5032558;28;20615;-72
2022/02/14 08:09:04;;;;;;;26.13;24.45;;;6.80;58.90;;;;;;5032429;28;20201;-72
2022/02/14 08:11:31;;;;;;;27.42;25.73;;;6.90;58.40;;;;;;5032475;28;20246;-72
2022/02/14 08:13:58;;;;;;;32.55;30.73;;;7.10;56.90;;;;;;5032343;28;20266;-72
2022/02/14 08:16:25;;;;;;;26.25;24.75;;;7.20;56.20;;;;;;5032173;28;20286;-72
2022/02/14 08:18:53;;;;;;;25.45;24.05;;;7.30;55.20;;;;;;5032234;28;20198;-72
2022/02/14 08:21:20;;;;;;;29.63;27.85;;;7.50;54.60;;;;;;5031770;28;20232;-72
2022/02/14 08:23:47;;;;;;;26.65;24.77;;;7.60;54.20;;;;;;5032245;28;20296;-73
2022/02/14 08:26:15;;;;;;;27.27;25.45;;;7.70;54.20;;;;;;5032359;28;20292;-73
2022/02/14 08:28:42;;;;;;;30.08;28.00;;;7.80;54.10;;;;;;5032140;28;20198;-72
2022/02/14 08:31:11;;;;;;;27.02;25.15;;;7.90;53.90;;;;;;5034405;28;20367;-72
2022/02/14 08:33:39;;;;;;;27.25;25.40;;;8.00;53.70;;;;;;5036038;28;20248;-72
2022/02/14 08:36:07;;;;;;;25.52;23.85;;;8.10;53.30;;;;;;5035967;28;20258;-72
2022/02/14 08:38:35;;;;;;;24.92;23.33;;;8.10;53.20;;;;;;5036257;28;20220;-72
2022/02/14 08:41:02;;;;;;;27.48;25.85;;;8.30;54.50;;;;;;5035654;28;20641;-72
2022/02/14 08:43:31;;;;;;;26.33;24.48;;;8.40;52.60;;;;;;5035803;28;20201;-73
2022/02/14 08:45:58;;;;;;;29.15;27.52;;;8.60;52.20;;;;;;5035656;28;20194;-73
2022/02/14 08:48:27;;;;;;;24.48;23.08;;;8.70;52.20;;;;;;5035652;28;20284;-72
2022/02/14 08:50:54;;;;;;;29.80;28.08;;;8.70;51.70;;;;;;5035321;28;20218;-72
2022/02/14 08:53:23;;;;;;;25.65;24.25;;;8.80;52.00;;;;;;5035680;28;20201;-73
2022/02/14 08:55:50;;;;;;;31.73;30.08;;;9.00;52.30;;;;;;5035653;28;20745;-73
2022/02/14 08:58:17;;;;;;;26.00;24.40;;;9.20;52.40;;;;;;5035579;28;20294;-72
2022/02/14 09:00:45;;;;;;;29.42;27.30;;;9.30;52.10;;;;;;5035362;28;20221;-72
2022/02/14 09:03:12;;;;;;;30.48;28.50;;;9.40;52.60;;;;;;5035523;28;20198;-73
2022/02/14 09:05:39;;;;;;;28.50;26.70;;;9.60;51.30;;;;;;5035248;28;20197;-73
2022/02/14 09:08:07;;;;;;;27.15;25.35;;;9.80;51.30;;;;;;5035365;28;20448;-73
2022/02/14 09:10:36;;;;;;;32.17;30.20;;;9.90;51.50;;;;;;5034809;28;20225;-73
2022/02/14 09:13:03;;;;;;;27.87;25.97;;;10.20;50.90;;;;;;5035240;28;20453;-73
2022/02/14 09:15:30;;;;;;;29.90;28.53;;;10.40;50.10;;;;;;5035183;28;20476;-73
2022/02/14 09:17:59;;;;;;;27.70;25.83;;;10.70;49.90;;;;;;5035097;28;20882;-73
2022/02/14 09:20:25;;;;;;;26.00;24.20;;;10.90;49.90;;;;;;5034928;28;20475;-73
2022/02/14 09:22:54;;;;;;;28.53;26.73;;;11.10;49.60;;;;;;5034796;28;20987;-73
2022/02/14 09:25:22;;;;;;;28.07;26.17;;;11.30;48.90;;;;;;5034917;28;20455;-73
2022/02/14 09:27:49;;;;;;;29.13;27.13;;;11.50;48.80;;;;;;5034735;28;20452;-73
2022/02/14 09:30:16;;;;;;;25.50;23.90;;;11.70;48.90;;;;;;5034561;28;20462;-73
2022/02/14 09:32:43;;;;;;;26.67;24.87;;;11.90;48.40;;;;;;5034813;28;20450;-73
2022/02/14 09:35:11;;;;;;;28.77;27.27;;;11.90;48.40;;;;;;5034836;28;20620;-73
2022/02/14 09:37:38;;;;;;;26.37;24.77;;;12.00;48.30;;;;;;5034737;28;20481;-73
2022/02/14 09:40:07;;;;;;;25.27;23.83;;;12.00;48.30;;;;;;5034290;28;20466;-73
2022/02/14 09:42:34;;;;;;;26.80;24.83;;;12.10;48.10;;;;;;5033723;28;20484;-73
2022/02/14 09:45:00;;;;;;;28.33;25.83;;;12.10;48.20;;;;;;5034590;28;20449;-73
2022/02/14 09:47:27;;;;;;;31.80;29.50;;;12.30;48.30;;;;;;5034626;28;20495;-73
2022/02/14 09:49:55;;;;;;;26.63;25.03;;;12.50;47.90;;;;;;5034330;28;20461;-73
2022/02/14 09:52:24;;;;;;;26.30;24.70;;;12.50;47.90;;;;;;5034622;28;20480;-73
2022/02/14 09:54:51;;;;;;;26.20;24.50;;;12.50;48.20;;;;;;5034328;28;20492;-73
2022/02/14 09:57:19;;;;;;;26.83;24.60;;;12.60;48.20;;;;;;5034333;28;20547;-73
2022/02/14 09:59:45;;;;;;;32.47;30.47;;;12.70;48.30;;;;;;5034107;28;20452;-73
2022/02/14 10:02:20;;;;;;;31.33;29.27;;;12.80;48.10;;;;;;5034338;28;21052;-73
2022/02/14 10:05:07;;;;;;;27.20;25.50;;;12.80;48.30;;;;;;5034161;28;20508;-73
2022/02/14 10:07:44;;;;;;;27.63;25.87;;;12.80;48.60;;;;;;5034329;28;20466;-73
2022/02/14 10:10:15;;;;;;;28.27;26.23;;;12.90;48.70;;;;;;5033876;28;20539;-73
2022/02/14 10:12:45;;;;;;;28.87;27.13;;;12.90;48.90;;;;;;5034185;28;20459;-73
2022/02/14 10:15:13;;;;;;;26.07;24.30;;;13.00;48.90;;;;;;5033795;28;20512;-73
2022/02/14 10:17:44;;;;;;;25.77;24.23;;;13.00;49.00;;;;;;5034035;28;20874;-73
2022/02/14 10:20:15;;;;;;;25.50;24.00;;;13.00;49.30;;;;;;5033828;28;20456;-73
2022/02/14 10:22:54;;;;;;;26.23;24.53;;;13.10;49.70;;;;;;5033739;28;20469;-73
2022/02/14 10:25:29;;;;;;;26.00;24.27;;;13.30;49.70;;;;;;5033797;28;20866;-73
2022/02/14 10:28:15;;;;;;;25.20;23.70;;;13.40;50.00;;;;;;5033604;28;21017;-73
2022/02/14 10:30:55;;;;;;;26.67;24.57;;;13.60;49.90;;;;;;5033681;28;20565;-73
2022/02/14 10:33:23;;;;;;;30.83;28.77;;;13.80;49.80;;;;;;5033699;28;20971;-73
2022/02/14 10:35:50;;;;;;;25.83;24.07;;;13.80;50.00;;;;;;5033520;28;20559;-73
2022/02/14 10:38:22;;;;;;;27.20;25.30;;;13.80;50.10;;;;;;5033567;28;20464;-73
2022/02/14 10:40:49;;;;;;;25.27;23.67;;;13.90;49.90;;;;;;5033556;28;20471;-72
2022/02/14 10:43:25;;;;;;;29.90;28.10;;;13.90;50.10;;;;;;5033453;28;20454;-73
2022/02/14 10:45:53;;;;;;;27.13;25.33;;;14.00;50.50;;;;;;5033543;28;20454;-73
2022/02/14 10:48:34;;;;;;;28.77;27.00;;;14.10;50.60;;;;;;5033316;28;20447;-73
2022/02/14 10:51:01;;;;;;;26.80;25.30;;;14.10;50.80;;;;;;5033169;28;20473;-73
2022/02/14 10:53:29;;;;;;;29.90;28.00;;;14.20;50.80;;;;;;5033185;28;20455;-73
2022/02/14 10:55:58;;;;;;;25.23;23.53;;;14.20;51.10;;;;;;5033245;28;20480;-73
2022/02/14 10:58:28;;;;;;;25.20;23.70;;;14.20;51.10;;;;;;5033203;28;20459;-73
2022/02/14 11:00:57;;;;;;;28.17;26.57;;;14.20;51.40;;;;;;5032971;28;20477;-73
2022/02/14 11:03:24;;;;;;;29.90;28.10;;;14.30;51.40;;;;;;5033258;28;20452;-73
2022/02/14 11:05:52;;;;;;;28.27;26.60;;;14.50;51.40;;;;;;5033194;28;20491;-73
2022/02/14 11:08:21;;;;;;;25.50;23.83;;;14.50;51.40;;;;;;5033200;28;20532;-73
2022/02/14 11:10:52;;;;;;;26.03;24.43;;;14.60;51.30;;;;;;5032819;28;20475;-73
2022/02/14 11:13:23;;;;;;;24.80;23.40;;;14.60;51.10;;;;;;5033032;28;20459;-73
2022/02/14 11:15:54;;;;;;;29.70;27.83;;;14.70;51.20;;;;;;5032960;28;20873;-73
2022/02/14 11:18:24;;;;;;;25.33;23.90;;;14.70;51.60;;;;;;5033006;28;20454;-73
2022/02/14 11:20:51;;;;;;;26.70;24.90;;;14.90;51.20;;;;;;5032792;28;20483;-73
2022/02/14 11:23:20;;;;;;;28.83;27.13;;;14.90;51.60;;;;;;5032622;28;20473;-73
2022/02/14 11:25:55;;;;;;;25.43;23.87;;;14.70;52.90;;;;;;5032789;28;20921;-73
2022/02/14 11:28:27;;;;;;;25.30;23.50;;;14.70;52.60;;;;;;5032634;28;20477;-73
2022/02/14 11:31:08;;;;;;;26.40;25.00;;;14.70;52.80;;;;;;5032448;28;20472;-73
2022/02/14 11:33:36;;;;;;;28.17;26.43;;;14.70;53.50;;;;;;5032909;28;20463;-73
2022/02/14 11:36:06;;;;;;;24.77;22.97;;;14.80;53.60;;;;;;5032605;28;20570;-73
2022/02/14 11:38:44;;;;;;;28.53;26.77;;;14.80;54.00;;;;;;5032442;28;20466;-72
2022/02/14 11:41:43;;;;;;;29.87;28.37;;;14.80;54.10;;;;;;5032504;28;20514;-73
2022/02/14 11:44:21;;;;;;;22.70;21.33;;;14.80;54.20;;;;;;4999208;28;20537;-73
2022/02/14 11:46:49;;;;;;;26.10;24.60;;;14.70;54.10;;;;;;5032614;28;20787;-73
2022/02/14 11:49:19;;;;;;;31.07;29.47;;;14.70;54.00;;;;;;5032346;28;20814;-73
2022/02/14 11:51:50;;;;;;;32.50;30.53;;;14.60;54.50;;;;;;5032609;28;20557;-73
2022/02/14 11:54:32;;;;;;;23.70;22.30;;;14.70;54.50;;;;;;5032626;28;20462;-73
2022/02/14 11:57:31;;;;;;;24.23;22.83;;;14.70;54.40;;;;;;5032570;28;20444;-73
2022/02/14 12:00:23;;;;;;;27.03;25.43;;;14.70;55.20;;;;;;5032250;28;20928;-73
2022/02/14 12:03:13;;;;;;;26.83;25.33;;;14.70;54.60;;;;;;5032574;28;20487;-73
2022/02/14 12:05:43;;;;;;;25.73;24.27;;;14.80;54.10;;;;;;5034294;28;20516;-73
2022/02/14 12:08:10;;;;;;;27.17;25.30;;;14.80;54.00;;;;;;5036434;28;20453;-73
2022/02/14 12:10:45;;;;;;;24.83;23.40;;;14.90;53.90;;;;;;5036139;28;20475;-73
2022/02/14 12:13:16;;;;;;;25.30;23.60;;;14.90;54.00;;;;;;5036457;28;20462;-73
2022/02/14 12:21:29;;;;;;;23.77;22.43;;;15.00;53.80;;;;;;5036007;28;20944;-73
2022/02/14 12:23:58;;;;;;;23.37;21.93;;;14.90;54.10;;;;;;5036176;28;20465;-73
2022/02/14 12:26:28;;;;;;;24.53;23.20;;;14.90;54.90;;;;;;5035978;28;20455;-73
2022/02/14 12:31:51;;;;;;;24.17;22.77;;;14.70;55.90;;;;;;5036398;28;20603;-73
2022/02/14 12:34:26;;;;;;;23.87;22.47;;;14.70;55.90;;;;;;5036447;28;20452;-73
2022/02/14 12:36:55;;;;;;;24.53;23.03;;;14.60;56.30;;;;;;5036294;28;20453;-74
2022/02/14 12:39:37;;;;;;;23.07;21.87;;;14.60;56.30;;;;;;5035655;28;20539;-73
2022/02/14 12:42:20;;;;;;;23.40;22.00;;;14.70;56.30;;;;;;5035707;28;20505;-73
2022/02/14 12:44:49;;;;;;;23.50;22.10;;;14.60;56.60;;;;;;5035817;28;20473;-73
2022/02/14 12:47:17;;;;;;;24.90;23.30;;;14.50;56.90;;;;;;5035626;28;20455;-73
2022/02/14 12:50:10;;;;;;;24.20;22.73;;;14.50;56.90;;;;;;5035485;28;20532;-73